sensor_id;sensor_type;location;lat;lon;timestamp;pressure;altitude;pressure_sealevel;temperature;humidity
54948;BME280;41113;41.882;12.530;2023-02-28T00:00:34;101003.09;;;7.93;95.74
54948;BME280;41113;41.882;12.530;2023-02-28T00:02:59;100990.63;;;8.05;95.32
54948;BME280;41113;41.882;12.530;2023-02-28T00:05:26;100987.84;;;8.06;94.71
54948;BME280;41113;41.882;12.530;2023-02-28T00:07:54;100985.78;;;7.86;94.46
54948;BME280;41113;41.882;12.530;2023-02-28T00:10:23;100984.31;;;7.82;94.98
54948;BME280;41113;41.882;12.530;2023-02-28T00:12:50;100987.09;;;7.80;94.59
54948;BME280;41113;41.882;12.530;2023-02-28T00:15:16;100991.88;;;7.75;94.78
54948;BME280;41113;41.882;12.530;2023-02-28T00:17:41;100991.81;;;7.64;95.17
54948;BME280;41113;41.882;12.530;2023-02-28T00:20:09;100994.19;;;7.56;95.59
54948;BME280;41113;41.882;12.530;2023-02-28T00:22:36;100992.69;;;7.52;95.36
54948;BME280;41113;41.882;12.530;2023-02-28T00:25:01;100990.09;;;7.63;94.61
54948;BME280;41113;41.882;12.530;2023-02-28T00:27:27;100999.94;;;7.63;94.01
54948;BME280;41113;41.882;12.530;2023-02-28T00:29:52;100998.00;;;7.65;93.64
54948;BME280;41113;41.882;12.530;2023-02-28T00:32:19;100994.25;;;7.67;94.10
54948;BME280;41113;41.882;12.530;2023-02-28T00:34:44;100997.56;;;7.71;93.05
54948;BME280;41113;41.882;12.530;2023-02-28T00:37:10;100994.38;;;7.66;92.91
54948;BME280;41113;41.882;12.530;2023-02-28T00:39:37;100998.97;;;7.64;93.09
54948;BME280;41113;41.882;12.530;2023-02-28T00:42:05;100991.59;;;7.67;92.96
54948;BME280;41113;41.882;12.530;2023-02-28T00:44:31;100988.81;;;7.69;92.86
54948;BME280;41113;41.882;12.530;2023-02-28T00:46:57;100995.22;;;7.66;93.71
54948;BME280;41113;41.882;12.530;2023-02-28T00:49:24;100994.72;;;7.61;93.56
54948;BME280;41113;41.882;12.530;2023-02-28T00:51:49;100992.03;;;7.61;94.42
54948;BME280;41113;41.882;12.530;2023-02-28T00:54:15;100990.56;;;7.57;94.44
54948;BME280;41113;41.882;12.530;2023-02-28T00:56:40;100987.34;;;7.52;94.61
54948;BME280;41113;41.882;12.530;2023-02-28T00:59:07;100984.47;;;7.55;94.27
54948;BME280;41113;41.882;12.530;2023-02-28T01:01:33;100987.59;;;7.49;93.89
54948;BME280;41113;41.882;12.530;2023-02-28T01:03:59;100983.50;;;7.43;94.05
54948;BME280;41113;41.882;12.530;2023-02-28T01:06:24;100976.34;;;7.44;94.63
54948;BME280;41113;41.882;12.530;2023-02-28T01:08:50;100977.41;;;7.54;94.84
54948;BME280;41113;41.882;12.530;2023-02-28T01:11:16;100978.78;;;7.47;94.11
54948;BME280;41113;41.882;12.530;2023-02-28T01:13:43;100982.66;;;7.43;94.50
54948;BME280;41113;41.882;12.530;2023-02-28T01:16:09;100984.25;;;7.33;94.61
54948;BME280;41113;41.882;12.530;2023-02-28T01:18:35;100979.88;;;7.32;94.92
54948;BME280;41113;41.882;12.530;2023-02-28T01:21:09;100979.81;;;7.21;94.73
54948;BME280;41113;41.882;12.530;2023-02-28T01:23:35;100973.94;;;7.15;95.32
54948;BME280;41113;41.882;12.530;2023-02-28T01:26:15;100975.94;;;7.25;95.70
54948;BME280;41113;41.882;12.530;2023-02-28T01:28:41;100978.84;;;7.22;95.39
54948;BME280;41113;41.882;12.530;2023-02-28T01:31:07;100975.63;;;7.16;95.74
54948;BME280;41113;41.882;12.530;2023-02-28T01:33:33;100968.59;;;7.15;96.32
54948;BME280;41113;41.882;12.530;2023-02-28T01:36:00;100963.66;;;7.22;95.89
54948;BME280;41113;41.882;12.530;2023-02-28T01:38:26;100971.34;;;7.14;95.77
54948;BME280;41113;41.882;12.530;2023-02-28T01:40:52;100969.84;;;7.10;95.30
54948;BME280;41113;41.882;12.530;2023-02-28T01:43:26;100970.47;;;7.13;95.38
54948;BME280;41113;41.882;12.530;2023-02-28T01:45:53;100969.00;;;7.09;95.54
54948;BME280;41113;41.882;12.530;2023-02-28T01:48:21;100960.75;;;7.12;95.86
54948;BME280;41113;41.882;12.530;2023-02-28T01:50:49;100953.91;;;7.34;95.57
54948;BME280;41113;41.882;12.530;2023-02-28T01:53:21;100957.00;;;7.53;94.71
54948;BME280;41113;41.882;12.530;2023-02-28T01:55:50;100953.47;;;7.40;93.54
54948;BME280;41113;41.882;12.530;2023-02-28T01:58:17;100954.78;;;7.22;94.67
54948;BME280;41113;41.882;12.530;2023-02-28T02:00:43;100951.69;;;7.15;94.52
54948;BME280;41113;41.882;12.530;2023-02-28T02:03:11;100948.91;;;7.04;95.53
54948;BME280;41113;41.882;12.530;2023-02-28T02:05:39;100943.03;;;6.99;95.76
54948;BME280;41113;41.882;12.530;2023-02-28T02:08:08;100937.59;;;7.00;95.63
54948;BME280;41113;41.882;12.530;2023-02-28T02:10:48;100926.91;;;7.00;96.04
54948;BME280;41113;41.882;12.530;2023-02-28T02:18:53;100930.75;;;6.96;96.38
54948;BME280;41113;41.882;12.530;2023-02-28T02:25:12;100926.38;;;6.95;96.48
54948;BME280;41113;41.882;12.530;2023-02-28T02:27:38;100916.88;;;7.04;96.86
54948;BME280;41113;41.882;12.530;2023-02-28T02:40:30;100917.50;;;7.20;94.46
54948;BME280;41113;41.882;12.530;2023-02-28T02:43:03;100923.06;;;7.04;95.24
54948;BME280;41113;41.882;12.530;2023-02-28T02:45:47;100920.63;;;7.01;95.53
54948;BME280;41113;41.882;12.530;2023-02-28T02:48:17;100929.69;;;6.99;95.41
54948;BME280;41113;41.882;12.530;2023-02-28T02:51:06;100926.59;;;6.92;95.68
54948;BME280;41113;41.882;12.530;2023-02-28T02:53:42;100922.22;;;6.91;96.27
54948;BME280;41113;41.882;12.530;2023-02-28T02:56:11;100915.81;;;6.94;96.13
54948;BME280;41113;41.882;12.530;2023-02-28T02:58:41;100911.97;;;6.85;96.32
54948;BME280;41113;41.882;12.530;2023-02-28T03:01:13;100915.69;;;6.82;96.86
54948;BME280;41113;41.882;12.530;2023-02-28T03:03:42;100921.25;;;6.79;96.94
54948;BME280;41113;41.882;12.530;2023-02-28T03:06:08;100916.22;;;6.75;96.85
54948;BME280;41113;41.882;12.530;2023-02-28T03:08:35;100925.41;;;6.71;96.91
54948;BME280;41113;41.882;12.530;2023-02-28T03:11:06;100924.66;;;6.69;97.11
54948;BME280;41113;41.882;12.530;2023-02-28T03:23:03;100923.50;;;6.73;95.44
54948;BME280;41113;41.882;12.530;2023-02-28T03:30:59;100918.34;;;6.82;94.19
54948;BME280;41113;41.882;12.530;2023-02-28T03:33:26;100922.00;;;6.81;94.16
54948;BME280;41113;41.882;12.530;2023-02-28T03:36:07;100917.63;;;6.93;93.53
54948;BME280;41113;41.882;12.530;2023-02-28T03:38:46;100926.81;;;6.89;93.87
54948;BME280;41113;41.882;12.530;2023-02-28T03:41:22;100921.69;;;6.99;92.86
54948;BME280;41113;41.882;12.530;2023-02-28T03:43:59;100923.47;;;7.11;92.74
54948;BME280;41113;41.882;12.530;2023-02-28T03:46:30;100922.41;;;7.13;92.20
54948;BME280;41113;41.882;12.530;2023-02-28T03:49:17;100927.34;;;7.20;91.97
54948;BME280;41113;41.882;12.530;2023-02-28T03:51:46;100933.00;;;7.02;91.54
54948;BME280;41113;41.882;12.530;2023-02-28T03:54:17;100935.44;;;7.05;92.18
54948;BME280;41113;41.882;12.530;2023-02-28T03:56:50;100932.06;;;6.91;91.39
54948;BME280;41113;41.882;12.530;2023-02-28T03:59:28;100941.00;;;7.02;91.37
54948;BME280;41113;41.882;12.530;2023-02-28T04:01:57;100938.03;;;6.94;90.19
54948;BME280;41113;41.882;12.530;2023-02-28T04:04:24;100939.53;;;6.98;90.74
54948;BME280;41113;41.882;12.530;2023-02-28T04:06:51;100937.38;;;7.03;90.18
54948;BME280;41113;41.882;12.530;2023-02-28T04:09:17;100925.41;;;7.09;89.67
54948;BME280;41113;41.882;12.530;2023-02-28T04:11:51;100925.41;;;7.09;89.47
54948;BME280;41113;41.882;12.530;2023-02-28T04:14:17;100923.50;;;6.98;89.88
54948;BME280;41113;41.882;12.530;2023-02-28T04:16:43;100928.31;;;6.93;90.15
54948;BME280;41113;41.882;12.530;2023-02-28T04:19:09;100931.72;;;6.95;90.41
54948;BME280;41113;41.882;12.530;2023-02-28T04:21:40;100936.09;;;6.96;90.42
54948;BME280;41113;41.882;12.530;2023-02-28T04:24:15;100935.69;;;6.90;90.29
54948;BME280;41113;41.882;12.530;2023-02-28T04:26:44;100930.66;;;6.85;90.25
54948;BME280;41113;41.882;12.530;2023-02-28T04:29:11;100929.81;;;6.84;90.54
54948;BME280;41113;41.882;12.530;2023-02-28T04:31:37;100928.19;;;6.82;91.20
54948;BME280;41113;41.882;12.530;2023-02-28T04:34:03;100931.81;;;6.81;90.76
54948;BME280;41113;41.882;12.530;2023-02-28T04:36:29;100930.09;;;6.80;90.64
54948;BME280;41113;41.882;12.530;2023-02-28T04:38:54;100936.88;;;6.85;90.68
54948;BME280;41113;41.882;12.530;2023-02-28T04:41:20;100929.16;;;6.81;90.74
54948;BME280;41113;41.882;12.530;2023-02-28T04:43:46;100933.53;;;6.82;90.94
54948;BME280;41113;41.882;12.530;2023-02-28T04:46:11;100934.59;;;6.79;90.45
54948;BME280;41113;41.882;12.530;2023-02-28T04:48:38;100936.13;;;6.83;90.12
54948;BME280;41113;41.882;12.530;2023-02-28T04:51:09;100938.31;;;6.77;89.81
54948;BME280;41113;41.882;12.530;2023-02-28T04:53:36;100945.50;;;6.89;89.87
54948;BME280;41113;41.882;12.530;2023-02-28T04:56:03;100938.69;;;6.85;89.75
54948;BME280;41113;41.882;12.530;2023-02-28T04:58:28;100943.81;;;6.88;89.42
54948;BME280;41113;41.882;12.530;2023-02-28T05:01:02;100941.03;;;6.90;88.89
54948;BME280;41113;41.882;12.530;2023-02-28T05:03:27;100947.00;;;6.93;88.99
54948;BME280;41113;41.882;12.530;2023-02-28T05:05:53;100950.00;;;7.01;88.71
54948;BME280;41113;41.882;12.530;2023-02-28T05:08:18;100955.75;;;6.95;88.09
54948;BME280;41113;41.882;12.530;2023-02-28T05:10:43;100951.06;;;6.86;88.71
54948;BME280;41113;41.882;12.530;2023-02-28T05:13:11;100947.44;;;6.87;88.57
54948;BME280;41113;41.882;12.530;2023-02-28T05:15:40;100962.16;;;6.93;88.13
54948;BME280;41113;41.882;12.530;2023-02-28T05:18:07;100958.13;;;6.87;88.06
54948;BME280;41113;41.882;12.530;2023-02-28T05:20:33;100960.03;;;6.85;87.80
54948;BME280;41113;41.882;12.530;2023-02-28T05:22:59;100964.06;;;6.78;88.36
54948;BME280;41113;41.882;12.530;2023-02-28T05:25:31;100964.28;;;6.75;88.71
54948;BME280;41113;41.882;12.530;2023-02-28T05:28:05;100956.25;;;6.75;88.65
54948;BME280;41113;41.882;12.530;2023-02-28T05:30:31;100959.78;;;6.75;88.82
54948;BME280;41113;41.882;12.530;2023-02-28T05:32:58;100968.31;;;6.68;88.56
54948;BME280;41113;41.882;12.530;2023-02-28T05:35:24;100954.66;;;6.60;89.04
54948;BME280;41113;41.882;12.530;2023-02-28T05:37:50;100964.59;;;6.58;88.55
54948;BME280;41113;41.882;12.530;2023-02-28T05:40:15;100972.78;;;6.54;89.11
54948;BME280;41113;41.882;12.530;2023-02-28T05:42:41;100977.38;;;6.52;88.99
54948;BME280;41113;41.882;12.530;2023-02-28T05:45:07;100970.88;;;6.57;88.53
54948;BME280;41113;41.882;12.530;2023-02-28T05:47:33;100971.31;;;6.50;88.50
54948;BME280;41113;41.882;12.530;2023-02-28T05:49:59;100975.47;;;6.54;88.15
54948;BME280;41113;41.882;12.530;2023-02-28T05:52:25;100969.38;;;6.52;88.34
54948;BME280;41113;41.882;12.530;2023-02-28T05:54:50;100966.81;;;6.51;87.83
54948;BME280;41113;41.882;12.530;2023-02-28T05:57:16;100967.66;;;6.51;88.59
54948;BME280;41113;41.882;12.530;2023-02-28T05:59:41;100956.78;;;6.54;88.08
54948;BME280;41113;41.882;12.530;2023-02-28T06:02:12;100954.44;;;6.63;88.48
54948;BME280;41113;41.882;12.530;2023-02-28T06:04:39;100959.34;;;6.69;88.02
54948;BME280;41113;41.882;12.530;2023-02-28T06:07:06;100957.88;;;6.77;87.58
54948;BME280;41113;41.882;12.530;2023-02-28T06:09:31;100955.72;;;6.82;87.42
54948;BME280;41113;41.882;12.530;2023-02-28T06:12:01;100963.00;;;6.80;87.40
54948;BME280;41113;41.882;12.530;2023-02-28T06:14:31;100963.63;;;6.71;87.48
54948;BME280;41113;41.882;12.530;2023-02-28T06:16:58;100969.28;;;6.67;87.61
54948;BME280;41113;41.882;12.530;2023-02-28T06:19:24;100966.63;;;6.67;87.97
54948;BME280;41113;41.882;12.530;2023-02-28T06:21:51;100965.44;;;6.71;88.12
54948;BME280;41113;41.882;12.530;2023-02-28T06:24:21;100965.22;;;6.74;87.63
54948;BME280;41113;41.882;12.530;2023-02-28T06:26:46;100966.19;;;6.73;87.68
54948;BME280;41113;41.882;12.530;2023-02-28T06:29:12;100969.63;;;6.75;87.66
54948;BME280;41113;41.882;12.530;2023-02-28T06:31:42;100966.94;;;6.75;87.72
54948;BME280;41113;41.882;12.530;2023-02-28T06:34:09;100971.78;;;6.95;87.81
54948;BME280;41113;41.882;12.530;2023-02-28T06:36:36;100972.75;;;6.94;87.12
54948;BME280;41113;41.882;12.530;2023-02-28T06:39:03;100979.25;;;6.90;87.60
54948;BME280;41113;41.882;12.530;2023-02-28T06:41:31;100986.50;;;6.88;88.01
54948;BME280;41113;41.882;12.530;2023-02-28T06:44:13;100987.06;;;6.93;87.97
54948;BME280;41113;41.882;12.530;2023-02-28T06:46:40;100990.16;;;6.87;88.19
54948;BME280;41113;41.882;12.530;2023-02-28T06:49:09;100985.19;;;6.81;88.66
54948;BME280;41113;41.882;12.530;2023-02-28T06:51:37;100973.88;;;6.77;89.25
54948;BME280;41113;41.882;12.530;2023-02-28T06:54:03;100979.00;;;6.80;89.09
54948;BME280;41113;41.882;12.530;2023-02-28T06:56:29;100980.09;;;6.91;89.70
54948;BME280;41113;41.882;12.530;2023-02-28T06:58:54;100968.78;;;6.87;88.86
54948;BME280;41113;41.882;12.530;2023-02-28T07:01:20;100969.44;;;6.91;88.92
54948;BME280;41113;41.882;12.530;2023-02-28T07:03:47;100972.22;;;6.89;88.37
54948;BME280;41113;41.882;12.530;2023-02-28T07:06:18;100973.06;;;6.90;87.55
54948;BME280;41113;41.882;12.530;2023-02-28T07:08:43;100979.78;;;6.95;87.30
54948;BME280;41113;41.882;12.530;2023-02-28T07:11:09;100970.59;;;6.99;87.14
54948;BME280;41113;41.882;12.530;2023-02-28T07:13:35;100975.72;;;7.02;86.69
54948;BME280;41113;41.882;12.530;2023-02-28T07:16:02;100963.75;;;7.08;86.78
54948;BME280;41113;41.882;12.530;2023-02-28T07:18:28;100972.19;;;7.14;86.59
54948;BME280;41113;41.882;12.530;2023-02-28T07:20:54;100974.84;;;7.14;86.14
54948;BME280;41113;41.882;12.530;2023-02-28T07:23:20;100968.91;;;7.24;85.89
54948;BME280;41113;41.882;12.530;2023-02-28T07:25:46;100961.50;;;7.40;85.28
54948;BME280;41113;41.882;12.530;2023-02-28T07:28:12;100955.91;;;7.56;85.04
54948;BME280;41113;41.882;12.530;2023-02-28T07:30:38;100959.28;;;7.70;84.60
54948;BME280;41113;41.882;12.530;2023-02-28T07:33:05;100960.03;;;7.72;83.51
54948;BME280;41113;41.882;12.530;2023-02-28T07:35:31;100952.00;;;7.72;83.71
54948;BME280;41113;41.882;12.530;2023-02-28T07:37:58;100957.88;;;7.77;84.03
54948;BME280;41113;41.882;12.530;2023-02-28T07:40:24;100955.44;;;7.74;83.46
54948;BME280;41113;41.882;12.530;2023-02-28T07:42:51;100955.56;;;7.97;83.39
54948;BME280;41113;41.882;12.530;2023-02-28T07:45:17;100956.34;;;8.10;82.73
54948;BME280;41113;41.882;12.530;2023-02-28T07:47:43;100951.94;;;7.98;82.57
54948;BME280;41113;41.882;12.530;2023-02-28T07:50:12;100957.56;;;8.06;82.64
54948;BME280;41113;41.882;12.530;2023-02-28T07:52:39;100960.22;;;8.06;82.99
54948;BME280;41113;41.882;12.530;2023-02-28T07:55:07;100960.31;;;8.17;82.47
54948;BME280;41113;41.882;12.530;2023-02-28T07:57:33;100955.22;;;8.25;82.62
54948;BME280;41113;41.882;12.530;2023-02-28T07:59:59;100946.63;;;8.33;81.89
54948;BME280;41113;41.882;12.530;2023-02-28T08:02:24;100955.19;;;8.38;82.00
54948;BME280;41113;41.882;12.530;2023-02-28T08:04:50;100953.97;;;8.42;82.14
54948;BME280;41113;41.882;12.530;2023-02-28T08:07:16;100951.50;;;8.52;81.95
54948;BME280;41113;41.882;12.530;2023-02-28T08:09:42;100948.34;;;8.69;81.00
54948;BME280;41113;41.882;12.530;2023-02-28T08:12:09;100949.38;;;8.79;80.68
54948;BME280;41113;41.882;12.530;2023-02-28T08:14:35;100943.91;;;8.92;79.66
54948;BME280;41113;41.882;12.530;2023-02-28T08:17:00;100939.41;;;9.03;78.92
54948;BME280;41113;41.882;12.530;2023-02-28T08:19:26;100955.75;;;9.12;78.64
54948;BME280;41113;41.882;12.530;2023-02-28T08:21:52;100949.44;;;9.13;78.88
54948;BME280;41113;41.882;12.530;2023-02-28T08:24:17;100946.50;;;9.16;79.51
54948;BME280;41113;41.882;12.530;2023-02-28T08:26:42;100943.47;;;9.20;78.72
54948;BME280;41113;41.882;12.530;2023-02-28T08:29:08;100942.97;;;9.26;79.11
54948;BME280;41113;41.882;12.530;2023-02-28T08:31:33;100943.09;;;9.36;78.50
54948;BME280;41113;41.882;12.530;2023-02-28T08:34:05;100931.88;;;9.42;78.25
54948;BME280;41113;41.882;12.530;2023-02-28T08:36:30;100947.84;;;9.55;78.27
54948;BME280;41113;41.882;12.530;2023-02-28T08:38:56;100936.63;;;9.61;78.13
54948;BME280;41113;41.882;12.530;2023-02-28T08:41:23;100942.56;;;9.64;78.43
54948;BME280;41113;41.882;12.530;2023-02-28T08:43:48;100942.81;;;9.84;78.33
54948;BME280;41113;41.882;12.530;2023-02-28T08:46:13;100945.91;;;10.00;75.39
54948;BME280;41113;41.882;12.530;2023-02-28T08:48:39;100933.53;;;10.20;74.37
54948;BME280;41113;41.882;12.530;2023-02-28T08:51:10;100936.34;;;10.29;73.84
54948;BME280;41113;41.882;12.530;2023-02-28T08:53:37;100947.63;;;10.44;73.10
54948;BME280;41113;41.882;12.530;2023-02-28T08:56:08;100950.13;;;10.57;70.62
54948;BME280;41113;41.882;12.530;2023-02-28T08:58:34;100941.38;;;10.76;72.19
54948;BME280;41113;41.882;12.530;2023-02-28T09:01:00;100948.50;;;10.86;70.15
54948;BME280;41113;41.882;12.530;2023-02-28T09:03:25;100929.88;;;10.95;69.14
54948;BME280;41113;41.882;12.530;2023-02-28T09:06:00;100935.28;;;11.04;68.54
54948;BME280;41113;41.882;12.530;2023-02-28T09:08:27;100932.09;;;11.10;68.39
54948;BME280;41113;41.882;12.530;2023-02-28T09:10:53;100942.75;;;11.21;67.98
54948;BME280;41113;41.882;12.530;2023-02-28T09:13:20;100936.00;;;11.27;66.87
54948;BME280;41113;41.882;12.530;2023-02-28T09:15:45;100930.41;;;11.40;67.72
54948;BME280;41113;41.882;12.530;2023-02-28T09:18:10;100934.25;;;11.47;66.08
54948;BME280;41113;41.882;12.530;2023-02-28T09:20:40;100930.31;;;11.61;65.33
54948;BME280;41113;41.882;12.530;2023-02-28T09:23:07;100943.47;;;11.64;65.08
54948;BME280;41113;41.882;12.530;2023-02-28T09:25:33;100931.06;;;11.72;65.08
54948;BME280;41113;41.882;12.530;2023-02-28T09:27:59;100929.09;;;11.74;64.65
54948;BME280;41113;41.882;12.530;2023-02-28T09:30:24;100923.19;;;11.80;64.44
54948;BME280;41113;41.882;12.530;2023-02-28T09:32:49;100932.53;;;11.86;64.92
54948;BME280;41113;41.882;12.530;2023-02-28T09:35:19;100926.03;;;11.98;64.19
54948;BME280;41113;41.882;12.530;2023-02-28T09:37:46;100914.13;;;12.01;63.92
54948;BME280;41113;41.882;12.530;2023-02-28T09:40:13;100919.56;;;12.10;63.46
54948;BME280;41113;41.882;12.530;2023-02-28T09:42:40;100908.78;;;12.10;63.50
54948;BME280;41113;41.882;12.530;2023-02-28T09:45:13;100911.91;;;12.15;64.46
54948;BME280;41113;41.882;12.530;2023-02-28T09:47:44;100900.56;;;12.41;62.80
54948;BME280;41113;41.882;12.530;2023-02-28T09:52:54;100892.13;;;12.83;59.04
54948;BME280;41113;41.882;12.530;2023-02-28T09:55:33;100897.19;;;12.95;59.04
54948;BME280;41113;41.882;12.530;2023-02-28T09:58:02;100879.31;;;13.04;59.36
54948;BME280;41113;41.882;12.530;2023-02-28T10:00:38;100878.56;;;13.12;59.01
54948;BME280;41113;41.882;12.530;2023-02-28T10:03:27;100883.69;;;13.05;57.66
54948;BME280;41113;41.882;12.530;2023-02-28T10:08:47;100876.38;;;12.88;56.71
54948;BME280;41113;41.882;12.530;2023-02-28T10:11:17;100882.03;;;12.85;57.07
54948;BME280;41113;41.882;12.530;2023-02-28T10:13:52;100883.75;;;12.86;56.87
54948;BME280;41113;41.882;12.530;2023-02-28T10:16:29;100882.75;;;12.87;57.03
54948;BME280;41113;41.882;12.530;2023-02-28T10:21:31;100884.63;;;12.76;56.27
54948;BME280;41113;41.882;12.530;2023-02-28T10:24:15;100879.38;;;12.75;56.79
54948;BME280;41113;41.882;12.530;2023-02-28T10:26:45;100879.81;;;12.70;55.21
54948;BME280;41113;41.882;12.530;2023-02-28T10:29:12;100880.25;;;12.75;57.31
54948;BME280;41113;41.882;12.530;2023-02-28T10:31:38;100883.53;;;12.69;56.68
54948;BME280;41113;41.882;12.530;2023-02-28T10:34:04;100874.59;;;12.69;56.85
54948;BME280;41113;41.882;12.530;2023-02-28T10:36:31;100886.63;;;12.74;57.17
54948;BME280;41113;41.882;12.530;2023-02-28T10:38:57;100878.94;;;12.80;57.69
54948;BME280;41113;41.882;12.530;2023-02-28T10:41:30;100881.63;;;12.80;56.84
54948;BME280;41113;41.882;12.530;2023-02-28T10:44:30;100876.94;;;12.82;56.25
54948;BME280;41113;41.882;12.530;2023-02-28T10:46:56;100880.47;;;12.92;57.73
54948;BME280;41113;41.882;12.530;2023-02-28T10:49:31;100875.06;;;12.92;56.05
54948;BME280;41113;41.882;12.530;2023-02-28T10:51:59;100870.38;;;12.94;56.44
54948;BME280;41113;41.882;12.530;2023-02-28T10:54:34;100869.69;;;12.92;55.28
54948;BME280;41113;41.882;12.530;2023-02-28T10:57:20;100859.75;;;12.92;56.17
54948;BME280;41113;41.882;12.530;2023-02-28T10:59:52;100860.19;;;12.88;55.48
54948;BME280;41113;41.882;12.530;2023-02-28T11:02:33;100850.56;;;12.85;56.49
54948;BME280;41113;41.882;12.530;2023-02-28T11:04:59;100851.56;;;12.84;56.33
54948;BME280;41113;41.882;12.530;2023-02-28T11:07:26;100854.94;;;12.86;55.84
54948;BME280;41113;41.882;12.530;2023-02-28T11:09:55;100851.81;;;12.91;56.53
54948;BME280;41113;41.882;12.530;2023-02-28T11:12:33;100852.50;;;12.93;55.02
54948;BME280;41113;41.882;12.530;2023-02-28T11:15:06;100856.91;;;12.94;54.72
54948;BME280;41113;41.882;12.530;2023-02-28T11:17:43;100849.06;;;13.00;54.70
54948;BME280;41113;41.882;12.530;2023-02-28T11:22:45;100843.88;;;13.26;53.85
54948;BME280;41113;41.882;12.530;2023-02-28T11:25:31;100834.34;;;13.32;52.92
54948;BME280;41113;41.882;12.530;2023-02-28T11:28:02;100839.53;;;13.43;53.53
54948;BME280;41113;41.882;12.530;2023-02-28T11:30:35;100840.94;;;13.47;53.06
54948;BME280;41113;41.882;12.530;2023-02-28T11:33:37;100844.78;;;13.45;52.94
54948;BME280;41113;41.882;12.530;2023-02-28T11:36:13;100836.38;;;13.48;52.82
54948;BME280;41113;41.882;12.530;2023-02-28T11:38:39;100836.84;;;13.61;54.38
54948;BME280;41113;41.882;12.530;2023-02-28T11:46:49;100823.78;;;13.66;53.84
54948;BME280;41113;41.882;12.530;2023-02-28T11:49:22;100824.16;;;13.71;54.57
54948;BME280;41113;41.882;12.530;2023-02-28T12:05:24;100805.09;;;13.90;54.87
54948;BME280;41113;41.882;12.530;2023-02-28T12:08:10;100798.47;;;14.02;53.10
54948;BME280;41113;41.882;12.530;2023-02-28T12:13:46;100802.56;;;14.07;53.69
54948;BME280;41113;41.882;12.530;2023-02-28T12:19:00;100793.28;;;14.09;53.51
54948;BME280;41113;41.882;12.530;2023-02-28T12:21:37;100799.06;;;14.14;54.22
54948;BME280;41113;41.882;12.530;2023-02-28T12:26:49;100792.13;;;14.12;53.72
54948;BME280;41113;41.882;12.530;2023-02-28T12:29:27;100798.53;;;14.11;52.00
54948;BME280;41113;41.882;12.530;2023-02-28T12:32:13;100790.44;;;14.11;49.31
54948;BME280;41113;41.882;12.530;2023-02-28T12:34:53;100792.75;;;14.06;50.38
54948;BME280;41113;41.882;12.530;2023-02-28T12:37:25;100792.53;;;13.99;50.32
54948;BME280;41113;41.882;12.530;2023-02-28T12:40:00;100796.00;;;13.91;51.78
54948;BME280;41113;41.882;12.530;2023-02-28T12:42:29;100792.38;;;13.83;52.08
54948;BME280;41113;41.882;12.530;2023-02-28T12:44:59;100787.38;;;13.70;49.94
54948;BME280;41113;41.882;12.530;2023-02-28T12:47:26;100778.88;;;13.65;52.69
54948;BME280;41113;41.882;12.530;2023-02-28T12:50:10;100779.50;;;13.59;51.46
54948;BME280;41113;41.882;12.530;2023-02-28T12:55:19;100764.94;;;13.52;53.54
54948;BME280;41113;41.882;12.530;2023-02-28T12:58:12;100753.59;;;13.48;52.65
54948;BME280;41113;41.882;12.530;2023-02-28T13:09:09;100748.88;;;13.32;57.89
54948;BME280;41113;41.882;12.530;2023-02-28T13:11:53;100750.03;;;13.30;58.20
54948;BME280;41113;41.882;12.530;2023-02-28T13:14:37;100743.38;;;13.24;57.80
54948;BME280;41113;41.882;12.530;2023-02-28T13:17:18;100745.41;;;13.22;58.05
54948;BME280;41113;41.882;12.530;2023-02-28T13:19:45;100747.41;;;13.20;58.59
54948;BME280;41113;41.882;12.530;2023-02-28T13:24:55;100743.69;;;13.21;58.66
54948;BME280;41113;41.882;12.530;2023-02-28T13:29:51;100740.31;;;13.19;58.63
54948;BME280;41113;41.882;12.530;2023-02-28T13:32:32;100737.88;;;13.16;57.93
54948;BME280;41113;41.882;12.530;2023-02-28T13:37:34;100725.00;;;13.10;57.73
54948;BME280;41113;41.882;12.530;2023-02-28T13:42:36;100732.06;;;13.21;57.53
54948;BME280;41113;41.882;12.530;2023-02-28T13:47:51;100712.72;;;13.25;55.08
54948;BME280;41113;41.882;12.530;2023-02-28T13:53:02;100705.00;;;13.30;55.10
54948;BME280;41113;41.882;12.530;2023-02-28T14:02:01;100699.34;;;13.33;56.06
54948;BME280;41113;41.882;12.530;2023-02-28T14:07:25;100691.31;;;13.42;55.99
54948;BME280;41113;41.882;12.530;2023-02-28T14:10:06;100697.78;;;13.49;55.73
54948;BME280;41113;41.882;12.530;2023-02-28T14:18:23;100695.09;;;13.66;55.41
54948;BME280;41113;41.882;12.530;2023-02-28T14:20:53;100690.75;;;13.74;55.68
54948;BME280;41113;41.882;12.530;2023-02-28T14:25:54;100689.66;;;13.84;56.25
54948;BME280;41113;41.882;12.530;2023-02-28T14:28:37;100690.97;;;13.80;55.60
54948;BME280;41113;41.882;12.530;2023-02-28T14:31:13;100702.94;;;13.78;55.88
54948;BME280;41113;41.882;12.530;2023-02-28T14:36:37;100692.44;;;13.75;55.74
54948;BME280;41113;41.882;12.530;2023-02-28T14:39:10;100695.00;;;13.76;55.99
54948;BME280;41113;41.882;12.530;2023-02-28T14:41:39;100705.47;;;13.79;56.07
54948;BME280;41113;41.882;12.530;2023-02-28T14:44:27;100699.53;;;13.76;55.33
54948;BME280;41113;41.882;12.530;2023-02-28T14:46:56;100702.72;;;13.71;55.08
54948;BME280;41113;41.882;12.530;2023-02-28T14:49:35;100698.31;;;13.70;55.36
54948;BME280;41113;41.882;12.530;2023-02-28T14:52:19;100691.66;;;13.64;54.55
54948;BME280;41113;41.882;12.530;2023-02-28T14:54:45;100685.75;;;13.61;54.89
54948;BME280;41113;41.882;12.530;2023-02-28T14:57:29;100680.13;;;13.54;54.44